Time;durP1;ratioP1;P1;durP2;ratioP2;P2;SDS_P1;SDS_P2;PMS_P1;PMS_P2;Temp;Humidity;BMP_temperature;BMP_pressure;BME280_temperature;BME280_humidity;BME280_pressure;Samples;Min_cycle;Max_cycle;Signal;HPM_P1;HPM_P2
2022/08/25 00:00:13;;;;;;;911.25;849.80;;;;;;;24.27;62.69;101624.56;688518;28;69549;-62
2022/08/25 00:00:34;;;;;;;924.67;862.87;;;;;;;24.27;62.80;101630.91;688518;28;68399;-63
2022/08/25 00:00:55;;;;;;;909.65;848.33;;;;;;;24.27;62.72;101628.16;689216;28;46389;-64
2022/08/25 00:01:19;;;;;;;915.65;854.10;;;;;;;24.26;62.58;101620.97;690016;28;22049;-62
2022/08/25 00:01:44;;;;;;;917.33;855.80;;;;;;;24.26;62.60;101626.50;687803;28;92328;-63
2022/08/25 00:02:07;;;;;;;923.22;861.40;;;;;;;24.27;62.65;101625.38;684675;28;157571;-64
2022/08/25 00:02:28;;;;;;;934.58;872.50;;;;;;;24.28;62.78;101631.78;688766;28;65000;-63
2022/08/25 00:02:50;;;;;;;929.38;867.40;;;;;;;24.28;62.76;101617.97;690109;28;22398;-64
2022/08/25 00:03:12;;;;;;;925.72;863.78;;;;;;;24.28;63.01;101617.97;689347;28;21013;-63
2022/08/25 00:03:34;;;;;;;923.85;862.03;;;;;;;24.28;62.58;101620.72;688434;28;69413;-63
2022/08/25 00:03:56;;;;;;;916.35;854.75;;;;;;;24.23;62.94;101612.34;689008;28;44367;-63
2022/08/25 00:04:18;;;;;;;914.97;853.38;;;;;;;24.27;62.43;101621.81;689068;28;44349;-63
2022/08/25 00:04:39;;;;;;;924.58;862.85;;;;;;;24.25;62.42;101622.06;686406;28;47403;-64
2022/08/25 00:05:01;;;;;;;918.50;856.88;;;;;;;24.23;62.53;101615.94;687867;28;22411;-63
2022/08/25 00:05:25;;;;;;;906.65;845.40;;;;;;;24.22;62.96;101622.53;688905;28;46276;-64
2022/08/25 00:05:46;;;;;;;923.17;861.38;;;;;;;24.22;63.08;101621.72;688282;28;70271;-63
2022/08/25 00:06:09;;;;;;;936.85;874.65;;;;;;;24.20;62.93;101623.88;689851;28;23231;-63
2022/08/25 00:06:31;;;;;;;908.60;847.28;;;;;;;24.19;62.57;101619.44;688352;28;67552;-63
2022/08/25 00:06:54;;;;;;;909.15;847.85;;;;;;;24.19;62.83;101613.94;688468;28;46323;-63
2022/08/25 00:07:15;;;;;;;909.80;848.28;;;;;;;24.15;63.33;101618.25;688143;28;67295;-63
2022/08/25 00:07:37;;;;;;;932.97;870.90;;;;;;;24.15;63.31;101626.53;689331;28;46315;-63
2022/08/25 00:07:59;;;;;;;908.90;847.63;;;;;;;24.13;63.06;101617.69;689233;28;46690;-64
2022/08/25 00:08:20;;;;;;;913.65;852.10;;;;;;;24.15;63.13;101629.28;689241;28;45218;-63
2022/08/25 00:08:42;;;;;;;916.22;854.72;;;;;;;24.13;63.29;101626.78;689480;28;22385;-66
2022/08/25 00:09:04;;;;;;;910.10;848.60;;;;;;;24.14;63.08;101616.56;689311;28;45438;-64
2022/08/25 00:09:27;;;;;;;906.55;845.25;;;;;;;24.16;63.16;101614.44;689991;28;23504;-64
2022/08/25 00:09:48;;;;;;;927.33;865.33;;;;;;;24.16;63.04;101619.94;688449;28;67497;-63
2022/08/25 00:10:09;;;;;;;943.92;881.40;;;;;;;24.15;62.79;101619.09;689356;28;44274;-63
2022/08/25 00:10:33;;;;;;;908.08;846.72;;;;;;;24.15;63.32;101615.50;690139;28;22372;-65
2022/08/25 00:10:54;;;;;;;906.67;845.42;;;;;;;24.16;63.02;101619.94;687553;28;92083;-62
2022/08/25 00:11:18;;;;;;;916.20;854.67;;;;;;;24.16;62.99;101615.25;690119;28;22368;-64
2022/08/25 00:11:40;;;;;;;917.50;855.90;;;;;;;24.15;63.02;101612.75;687650;28;92198;-64
2022/08/25 00:12:03;;;;;;;913.80;852.30;;;;;;;24.18;63.23;101620.53;689327;28;22428;-64
2022/08/25 00:12:26;;;;;;;911.50;850.10;;;;;;;24.18;62.85;101617.75;687723;28;92263;-63
2022/08/25 00:12:48;;;;;;;912.78;851.33;;;;;;;24.16;63.33;101611.66;687626;28;91759;-62
2022/08/25 00:13:09;;;;;;;918.33;856.72;;;;;;;24.18;62.82;101617.75;690068;28;23270;-63
2022/08/25 00:13:30;;;;;;;906.33;845.13;;;;;;;24.19;63.18;101611.16;689772;28;22331;-63
2022/08/25 00:13:55;;;;;;;928.67;866.33;;;;;;;24.18;62.84;101621.34;687706;28;46350;-62
2022/08/25 00:14:19;;;;;;;907.17;845.78;;;;;;;24.19;62.87;101620.28;686878;28;115610;-62
2022/08/25 00:14:42;;;;;;;907.92;846.55;;;;;;;24.20;63.05;101618.34;686947;28;115063;-62
2022/08/25 00:15:04;;;;;;;921.67;859.88;;;;;;;24.21;62.73;101612.56;689101;28;44380;-63
2022/08/25 00:15:27;;;;;;;923.40;861.58;;;;;;;24.19;63.18;101614.75;688426;28;67486;-62
2022/08/25 00:15:49;;;;;;;913.63;852.15;;;;;;;24.18;62.62;101610.31;689279;28;45216;-62
2022/08/25 00:16:10;;;;;;;910.45;849.05;;;;;;;24.18;63.00;101615.84;693553;28;70628;-62
2022/08/25 00:16:32;;;;;;;914.53;853.08;;;;;;;24.17;63.10;101607.81;694572;28;46419;-62
2022/08/25 00:16:53;;;;;;;908.47;847.10;;;;;;;24.14;62.95;101616.56;693394;28;23498;-63
2022/08/25 00:17:15;;;;;;;923.20;861.15;;;;;;;24.15;63.10;101623.78;694252;28;44157;-62
2022/08/25 00:17:37;;;;;;;925.47;863.47;;;;;;;24.15;63.18;101612.75;694478;28;44368;-62
2022/08/25 00:17:59;;;;;;;926.80;864.85;;;;;;;24.16;62.77;101615.25;694189;28;22141;-63
2022/08/25 00:18:20;;;;;;;899.88;838.85;;;;;;;24.11;62.68;101604.13;688417;28;67477;-63
2022/08/25 00:18:45;;;;;;;904.75;843.47;;;;;;;24.16;62.87;101614.44;690163;28;22399;-62
2022/08/25 00:19:09;;;;;;;921.53;859.78;;;;;;;24.16;62.75;101614.44;687574;28;93254;-63
2022/08/25 00:19:33;;;;;;;923.70;861.95;;;;;;;24.15;63.13;101610.81;687710;28;92104;-61
2022/08/25 00:19:54;;;;;;;901.53;840.42;;;;;;;24.16;63.13;101615.25;686722;28;115284;-62
2022/08/25 00:20:17;;;;;;;910.35;848.95;;;;;;;24.18;62.76;101618.59;690295;28;14843;-62
2022/08/25 00:20:38;;;;;;;900.95;839.88;;;;;;;24.18;62.62;101615.84;689347;28;46288;-62
2022/08/25 00:20:59;;;;;;;914.42;852.97;;;;;;;24.19;62.81;101611.16;689916;28;23375;-64
2022/08/25 00:21:21;;;;;;;909.20;847.92;;;;;;;24.20;62.66;101612.81;689192;28;46294;-63
2022/08/25 00:21:44;;;;;;;898.15;837.25;;;;;;;24.20;62.56;101613.69;689275;28;23484;-63
2022/08/25 00:22:06;;;;;;;905.83;844.63;;;;;;;24.18;63.13;101610.31;688390;28;69415;-63
2022/08/25 00:22:28;;;;;;;909.97;848.67;;;;;;;24.21;62.66;101606.22;688416;28;69958;-63
2022/08/25 00:22:49;;;;;;;933.55;871.38;;;;;;;24.21;62.79;101609.00;689330;28;45265;-64
2022/08/25 00:23:11;;;;;;;920.53;858.85;;;;;;;24.20;62.65;101610.94;688245;28;21545;-63
2022/08/25 00:23:33;;;;;;;913.80;852.30;;;;;;;24.21;63.04;101614.50;686583;28;44376;-63
2022/08/25 00:23:54;;;;;;;912.00;850.50;;;;;;;24.22;62.85;101607.91;686180;28;46040;-63
2022/08/25 00:24:17;;;;;;;925.45;863.53;;;;;;;24.23;62.61;101615.94;686602;28;45221;-62
2022/08/25 00:24:39;;;;;;;930.40;868.42;;;;;;;24.23;62.59;101615.09;686506;28;45529;-63
2022/08/25 00:25:01;;;;;;;901.03;839.90;;;;;;;24.20;62.75;101608.16;685716;28;69109;-62
2022/08/25 00:25:22;;;;;;;901.72;840.67;;;;;;;24.25;62.98;101610.19;687314;28;22389;-62
2022/08/25 00:25:43;;;;;;;914.28;852.78;;;;;;;24.20;62.55;101599.03;687391;28;21123;-63
2022/08/25 00:26:06;;;;;;;926.78;864.88;;;;;;;24.24;62.72;101608.50;687175;28;22077;-62
2022/08/25 00:26:27;;;;;;;926.58;864.67;;;;;;;24.23;62.45;101607.66;685817;28;67449;-63
2022/08/25 00:26:53;;;;;;;912.35;850.92;;;;;;;24.24;62.74;101612.09;685682;28;46318;-62
2022/08/25 00:27:15;;;;;;;911.10;849.40;;;;;;;24.27;62.88;101608.81;683105;28;137930;-61
2022/08/25 00:27:38;;;;;;;919.40;857.70;;;;;;;24.27;62.39;101608.00;687456;28;23424;-62
2022/08/25 00:27:59;;;;;;;926.60;864.72;;;;;;;24.26;62.34;101601.66;684745;28;92134;-62
2022/08/25 00:28:21;;;;;;;912.38;850.92;;;;;;;24.26;62.66;101604.41;689267;28;23468;-62
2022/08/25 00:28:43;;;;;;;888.80;828.20;;;;;;;24.26;62.09;101604.41;690169;28;23453;-62
2022/08/25 00:29:06;;;;;;;913.58;852.17;;;;;;;24.25;62.39;101607.44;688252;28;69293;-62
2022/08/25 00:29:27;;;;;;;926.53;864.72;;;;;;;24.24;62.55;101609.31;688957;28;47353;-62
2022/08/25 00:29:49;;;;;;;916.35;854.85;;;;;;;24.25;62.37;101604.66;689065;28;44360;-62
2022/08/25 00:30:13;;;;;;;932.22;870.13;;;;;;;24.25;62.51;101605.50;689561;28;21543;-63
2022/08/25 00:30:35;;;;;;;911.42;850.13;;;;;;;24.24;62.15;101600.22;687442;28;92241;-63
2022/08/25 00:30:59;;;;;;;919.97;858.38;;;;;;;24.23;62.76;101602.16;689106;28;46314;-62
2022/08/25 00:31:22;;;;;;;919.30;857.70;;;;;;;24.24;62.77;101608.50;687546;28;91948;-63
2022/08/25 00:31:44;;;;;;;916.22;854.80;;;;;;;24.22;62.37;101602.41;687716;28;67458;-62
2022/08/25 00:32:06;;;;;;;916.38;854.85;;;;;;;24.22;62.59;101600.47;688837;28;46278;-62
2022/08/25 00:32:27;;;;;;;928.58;866.63;;;;;;;24.20;62.47;101599.88;688281;28;69413;-64
2022/08/25 00:32:49;;;;;;;908.90;847.80;;;;;;;24.19;62.11;101597.38;690077;28;22392;-63
2022/08/25 00:33:10;;;;;;;920.13;858.53;;;;;;;24.18;62.35;101601.22;689906;28;23653;-63
2022/08/25 00:33:31;;;;;;;941.08;878.88;;;;;;;24.18;62.64;101601.22;690079;28;23769;-63
2022/08/25 00:33:54;;;;;;;920.20;858.72;;;;;;;24.15;62.60;101596.19;689207;28;46392;-62
2022/08/25 00:34:19;;;;;;;908.88;847.65;;;;;;;24.14;62.45;101597.25;688967;28;46460;-63
2022/08/25 00:34:40;;;;;;;911.58;850.28;;;;;;;24.16;62.35;101603.38;686811;28;116094;-63
2022/08/25 00:35:01;;;;;;;920.75;859.20;;;;;;;24.16;62.53;101601.44;690008;28;22258;-63
2022/08/25 00:35:25;;;;;;;922.20;860.40;;;;;;;24.16;62.79;101597.88;688677;28;46439;-63
2022/08/25 00:35:46;;;;;;;929.90;867.90;;;;;;;24.14;62.86;101594.50;688190;28;67446;-63
2022/08/25 00:36:11;;;;;;;907.00;845.70;;;;;;;24.15;62.80;101594.25;689762;28;23396;-63
2022/08/25 00:36:32;;;;;;;907.75;846.42;;;;;;;24.14;62.79;101595.34;686453;28;115143;-63
2022/08/25 00:36:53;;;;;;;908.95;847.55;;;;;;;24.13;62.72;101592.84;688025;28;23766;-63
2022/08/25 00:37:15;;;;;;;924.17;862.00;;;;;;;24.11;62.81;101599.44;689560;28;22395;-63
2022/08/25 00:37:37;;;;;;;920.53;858.67;;;;;;;24.12;62.78;101597.50;689188;28;45286;-63
2022/08/25 00:37:58;;;;;;;914.92;853.38;;;;;;;24.08;62.69;101590.81;689166;28;44395;-64
2022/08/25 00:38:19;;;;;;;915.00;853.35;;;;;;;24.11;62.46;101599.44;689941;28;22223;-64
2022/08/25 00:38:42;;;;;;;907.63;846.33;;;;;;;24.13;62.56;101598.34;689479;28;23407;-63
2022/08/25 00:39:04;;;;;;;914.30;852.72;;;;;;;24.13;62.54;101606.63;687729;28;69400;-62
2022/08/25 00:39:26;;;;;;;915.55;853.92;;;;;;;24.12;62.57;101603.03;688294;28;67272;-64
2022/08/25 00:39:47;;;;;;;926.33;864.45;;;;;;;24.11;62.98;101606.88;690103;28;21547;-62
2022/08/25 00:40:09;;;;;;;915.63;854.05;;;;;;;24.07;62.60;101594.66;690020;28;23434;-63
2022/08/25 00:40:31;;;;;;;924.53;862.70;;;;;;;24.10;62.99;101600.50;689122;28;45272;-62
2022/08/25 00:41:05;;;;;;;929.63;867.47;;;;;;;24.10;62.49;101603.25;688993;28;44299;-64
2022/08/25 00:41:26;;;;;;;907.97;846.55;;;;;;;24.09;62.74;101598.84;683055;28;138179;-63
2022/08/25 00:41:51;;;;;;;914.45;852.85;;;;;;;24.11;63.00;101606.88;685779;28;44369;-64
2022/08/25 00:42:12;;;;;;;915.85;854.25;;;;;;;24.09;63.01;101598.84;684973;28;92279;-64
2022/08/25 00:42:35;;;;;;;922.17;860.47;;;;;;;24.08;62.86;101590.81;687185;28;21453;-63
2022/08/25 00:42:59;;;;;;;904.08;842.75;;;;;;;24.06;62.83;101602.09;687507;28;92242;-63
2022/08/25 00:43:21;;;;;;;925.65;863.70;;;;;;;24.08;62.93;101599.09;688370;28;69413;-63
2022/08/25 00:43:46;;;;;;;930.60;868.55;;;;;;;24.05;62.85;101594.91;689263;28;44367;-63
2022/08/25 00:44:10;;;;;;;914.88;853.33;;;;;;;24.05;63.13;101600.41;686615;28;114912;-63
2022/08/25 00:44:32;;;;;;;912.85;851.40;;;;;;;24.05;62.92;101594.91;687685;28;92011;-62
2022/08/25 00:44:54;;;;;;;902.27;841.10;;;;;;;24.05;62.98;101597.66;688241;28;69455;-63
2022/08/25 00:45:15;;;;;;;915.92;854.28;;;;;;;24.02;63.13;101591.81;688925;28;46360;-63
2022/08/25 00:45:39;;;;;;;923.90;862.05;;;;;;;24.02;62.83;101598.16;690813;28;1016;-62
2022/08/25 00:46:00;;;;;;;931.38;869.20;;;;;;;24.02;63.00;101592.63;688358;28;69499;-64
2022/08/25 00:46:24;;;;;;;926.63;864.63;;;;;;;24.02;63.00;101595.38;689863;28;22417;-63
2022/08/25 00:46:47;;;;;;;923.60;861.80;;;;;;;24.02;63.14;101591.81;686779;28;91699;-63
2022/08/25 00:47:10;;;;;;;920.03;858.03;;;;;;;24.01;63.10;101596.50;686965;28;90395;-64
2022/08/25 00:47:31;;;;;;;920.92;859.15;;;;;;;24.00;63.36;101588.47;688382;28;67227;-62
2022/08/25 00:47:53;;;;;;;922.22;860.47;;;;;;;24.00;63.08;101593.97;689948;28;23481;-63
2022/08/25 00:48:14;;;;;;;912.45;850.97;;;;;;;23.99;63.37;101593.13;689296;28;45257;-63
2022/08/25 00:48:37;;;;;;;918.58;856.95;;;;;;;24.00;63.22;101594.81;690033;28;23478;-63
2022/08/25 00:49:01;;;;;;;910.58;849.17;;;;;;;24.01;63.32;101590.13;689070;28;46306;-62
2022/08/25 00:49:25;;;;;;;918.90;857.20;;;;;;;24.02;63.13;101594.56;686792;28;115112;-62
2022/08/25 00:49:49;;;;;;;922.75;860.95;;;;;;;24.01;62.85;101593.75;686922;28;115160;-65
2022/08/25 00:50:10;;;;;;;917.25;855.60;;;;;;;24.02;62.88;101591.81;687634;28;92142;-62
2022/08/25 00:50:34;;;;;;;914.97;853.42;;;;;;;24.02;63.07;101586.28;690113;28;21543;-63
2022/08/25 00:50:55;;;;;;;925.97;864.08;;;;;;;24.02;62.76;101587.13;687430;28;92265;-63
2022/08/25 00:51:22;;;;;;;931.95;869.80;;;;;;;24.02;62.74;101592.63;690013;28;23384;-64
2022/08/25 00:51:46;;;;;;;915.70;854.10;;;;;;;24.02;62.83;101587.13;685373;28;137159;-62
2022/08/25 00:52:11;;;;;;;915.00;853.33;;;;;;;24.02;63.04;101589.88;687558;28;93081;-63
2022/08/25 00:52:35;;;;;;;924.45;862.50;;;;;;;24.02;63.11;101597.31;686062;28;136492;-63
2022/08/25 00:52:59;;;;;;;927.67;865.75;;;;;;;24.02;62.84;101595.38;687607;28;90745;-63
2022/08/25 00:53:20;;;;;;;905.10;843.80;;;;;;;24.03;62.98;101596.25;682138;28;92253;-63
2022/08/25 00:53:42;;;;;;;892.88;831.97;;;;;;;24.02;63.18;101595.38;684763;28;21547;-64
2022/08/25 00:54:05;;;;;;;913.08;851.50;;;;;;;24.02;63.30;101589.88;684289;28;46238;-64
2022/08/25 00:54:28;;;;;;;914.38;852.88;;;;;;;24.02;62.80;101594.56;687242;28;26556;-64
2022/08/25 00:54:51;;;;;;;920.83;859.08;;;;;;;24.03;62.84;101599.84;685479;28;69323;-64
2022/08/25 00:55:16;;;;;;;917.92;856.22;;;;;;;24.01;62.78;101596.50;685313;28;69181;-64
2022/08/25 00:55:40;;;;;;;924.00;862.22;;;;;;;24.02;63.05;101597.31;683963;28;115045;-64
2022/08/25 00:56:01;;;;;;;922.10;860.33;;;;;;;24.02;63.19;101591.81;685491;28;69468;-63
2022/08/25 00:56:23;;;;;;;924.13;862.22;;;;;;;24.01;62.92;101596.50;686262;28;44426;-63
2022/08/25 00:56:45;;;;;;;917.83;856.22;;;;;;;23.98;62.89;101594.22;685285;28;46325;-64
2022/08/25 00:57:09;;;;;;;916.78;854.85;;;;;;;23.99;63.34;101592.31;685945;28;45810;-63
2022/08/25 00:57:37;;;;;;;916.63;854.83;;;;;;;24.01;62.95;101602.00;684725;28;92004;-62
2022/08/25 00:58:06;;;;;;;932.55;870.35;;;;;;;24.01;62.77;101601.16;682546;28;160966;-64
2022/08/25 00:58:29;;;;;;;911.25;849.85;;;;;;;24.01;63.01;101601.16;683351;28;136243;-64
2022/08/25 00:58:52;;;;;;;922.45;860.67;;;;;;;24.01;63.08;101602.00;685697;28;67481;-64
2022/08/25 00:59:13;;;;;;;917.72;856.00;;;;;;;24.00;63.00;101597.56;685665;28;69410;-64
2022/08/25 00:59:35;;;;;;;930.50;868.42;;;;;;;24.01;62.91;101596.50;687249;28;23478;-63
2022/08/25 00:59:57;;;;;;;925.67;863.70;;;;;;;23.99;63.10;101595.88;686325;28;46470;-63
2022/08/25 01:00:21;;;;;;;926.97;864.92;;;;;;;24.02;63.00;101594.56;687070;28;22278;-64
2022/08/25 01:00:45;;;;;;;924.80;862.92;;;;;;;24.01;63.09;101603.91;684089;28;114944;-64
2022/08/25 01:01:07;;;;;;;922.60;860.90;;;;;;;24.02;63.07;101597.31;684851;28;92180;-62
2022/08/25 01:01:29;;;;;;;929.47;867.50;;;;;;;23.97;62.99;101600.81;686325;28;45258;-63
2022/08/25 01:01:51;;;;;;;930.53;868.43;;;;;;;24.01;63.19;101595.63;685542;28;45352;-64
2022/08/25 01:02:14;;;;;;;917.28;855.47;;;;;;;24.00;63.14;101602.25;687501;28;69468;-64
2022/08/25 01:02:35;;;;;;;923.15;861.35;;;;;;;24.00;62.80;101605.03;688460;28;67383;-63
2022/08/25 01:02:57;;;;;;;914.92;853.33;;;;;;;24.01;62.99;101604.78;689951;28;23772;-64
2022/08/25 01:03:19;;;;;;;913.30;851.78;;;;;;;24.02;63.07;101611.94;689934;28;22380;-64
2022/08/25 01:03:40;;;;;;;920.05;858.45;;;;;;;24.03;63.17;101610.03;689236;28;44379;-64
2022/08/25 01:04:03;;;;;;;917.40;855.72;;;;;;;24.01;63.27;101606.69;689084;28;47423;-64
2022/08/25 01:04:24;;;;;;;911.75;850.30;;;;;;;24.02;63.32;101611.13;689239;28;45224;-64
2022/08/25 01:04:46;;;;;;;915.05;853.65;;;;;;;24.03;62.96;101607.28;688532;28;44131;-63
2022/08/25 01:05:08;;;;;;;912.90;851.42;;;;;;;24.04;62.81;101609.78;688808;28;46314;-64
2022/08/25 01:05:30;;;;;;;928.17;866.15;;;;;;;24.03;62.62;101604.53;688755;28;46370;-63
2022/08/25 01:05:53;;;;;;;928.67;866.60;;;;;;;24.02;63.27;101609.19;689161;28;38527;-64
2022/08/25 01:06:14;;;;;;;932.60;870.47;;;;;;;24.00;63.00;101608.59;688951;28;45228;-64
2022/08/25 01:06:38;;;;;;;925.83;863.88;;;;;;;24.01;63.16;101609.44;689721;28;21624;-64
2022/08/25 01:07:01;;;;;;;913.08;851.22;;;;;;;24.01;63.19;101604.78;685351;28;115490;-62
2022/08/25 01:07:22;;;;;;;923.28;861.15;;;;;;;24.03;62.84;101601.78;686293;28;44989;-64
2022/08/25 01:07:44;;;;;;;914.28;852.67;;;;;;;24.02;62.92;101603.66;686323;28;46362;-63
2022/08/25 01:08:06;;;;;;;919.13;857.40;;;;;;;24.04;63.04;101603.41;686595;28;46327;-64
2022/08/25 01:08:28;;;;;;;927.90;865.90;;;;;;;23.98;62.85;101598.88;689192;28;46383;-64
2022/08/25 01:08:51;;;;;;;919.20;857.40;;;;;;;24.02;62.73;101605.59;689036;28;44359;-64
2022/08/25 01:09:13;;;;;;;914.33;852.70;;;;;;;24.02;63.18;101605.59;688027;28;69424;-64
2022/08/25 01:09:41;;;;;;;924.17;862.28;;;;;;;24.01;63.03;101606.69;688605;28;60489;-63
2022/08/25 01:10:06;;;;;;;926.65;864.65;;;;;;;23.97;63.18;101598.06;686349;28;45169;-64
2022/08/25 01:10:30;;;;;;;926.13;864.15;;;;;;;24.00;62.71;101603.09;684153;28;114856;-63
2022/08/25 01:10:51;;;;;;;922.17;860.40;;;;;;;24.01;62.74;101601.16;687179;28;69389;-63
2022/08/25 01:11:12;;;;;;;920.40;858.65;;;;;;;24.00;62.85;101602.25;689113;28;46809;-64
2022/08/25 01:11:34;;;;;;;919.05;857.30;;;;;;;24.00;62.66;101607.78;690040;28;22423;-64
2022/08/25 01:11:56;;;;;;;929.30;867.20;;;;;;;23.98;62.76;101605.25;689068;28;22387;-63
2022/08/25 01:12:17;;;;;;;933.88;871.65;;;;;;;23.98;63.20;101607.16;688385;28;67628;-63
2022/08/25 01:12:39;;;;;;;927.80;865.80;;;;;;;23.97;62.99;101609.09;689935;28;23423;-64
2022/08/25 01:13:05;;;;;;;935.00;872.78;;;;;;;23.95;62.91;101603.00;689198;28;45218;-64
2022/08/25 01:13:32;;;;;;;913.10;851.63;;;;;;;23.96;62.79;101604.66;685881;28;138855;-63
2022/08/25 01:13:55;;;;;;;920.08;857.88;;;;;;;23.96;62.90;101601.06;684430;28;136499;-64
2022/08/25 01:14:18;;;;;;;916.28;854.55;;;;;;;23.95;62.90;101605.75;689098;28;46250;-63
2022/08/25 01:14:40;;;;;;;915.03;853.42;;;;;;;23.95;62.99;101596.63;688482;28;69709;-64
2022/08/25 01:15:02;;;;;;;931.58;869.50;;;;;;;23.94;62.82;101604.06;689143;28;44397;-63
2022/08/25 01:15:23;;;;;;;921.08;859.25;;;;;;;23.92;62.80;101595.22;689336;28;38919;-63
2022/08/25 01:15:46;;;;;;;929.50;867.47;;;;;;;23.89;62.86;101599.28;690006;28;23499;-63
2022/08/25 01:16:07;;;;;;;931.63;869.47;;;;;;;23.90;63.04;101597.34;689084;28;44157;-62
2022/08/25 01:16:28;;;;;;;926.65;864.65;;;;;;;23.91;63.27;101596.28;688841;28;44383;-64
2022/08/25 01:16:51;;;;;;;920.40;858.60;;;;;;;23.90;62.81;101600.13;689002;28;22428;-63
2022/08/25 01:17:13;;;;;;;907.35;845.83;;;;;;;23.89;62.93;101596.53;688125;28;67355;-63
2022/08/25 01:17:44;;;;;;;905.65;844.25;;;;;;;23.88;63.37;101603.13;690000;28;22390;-64
2022/08/25 01:18:05;;;;;;;926.33;864.40;;;;;;;23.88;63.00;101596.78;685070;28;159477;-63
2022/08/25 01:18:28;;;;;;;925.28;863.38;;;;;;;23.89;63.05;101593.78;689245;28;46508;-64
2022/08/25 01:18:51;;;;;;;921.13;859.33;;;;;;;23.90;63.05;101600.13;689073;28;44381;-64
2022/08/25 01:19:13;;;;;;;916.90;855.10;;;;;;;23.89;63.19;101592.94;688371;28;69395;-64
2022/08/25 01:19:34;;;;;;;933.85;871.65;;;;;;;23.90;62.98;101600.97;688400;28;69423;-64
2022/08/25 01:19:56;;;;;;;915.75;854.05;;;;;;;23.89;63.22;101601.22;689908;28;23453;-64
2022/08/25 01:20:20;;;;;;;917.97;856.20;;;;;;;23.89;63.40;101598.47;689092;28;44462;-63
2022/08/25 01:20:41;;;;;;;923.22;861.38;;;;;;;23.90;62.95;101603.72;687459;28;93241;-62
2022/08/25 01:21:04;;;;;;;910.38;848.85;;;;;;;23.90;63.04;101595.47;688995;28;44333;-64
2022/08/25 01:21:28;;;;;;;906.70;845.35;;;;;;;23.88;63.05;101594.84;688381;28;67332;-63
2022/08/25 01:21:52;;;;;;;918.50;856.88;;;;;;;23.89;62.97;101602.03;686801;28;92228;-63
2022/08/25 01:22:16;;;;;;;920.90;859.15;;;;;;;23.90;63.02;101597.34;685842;28;138131;-63
2022/08/25 01:22:37;;;;;;;905.42;844.22;;;;;;;23.91;63.44;101602.63;689991;28;23478;-64
2022/08/25 01:23:02;;;;;;;922.05;860.30;;;;;;;23.91;63.16;101599.03;688917;28;44383;-64
2022/08/25 01:23:24;;;;;;;923.10;861.25;;;;;;;23.90;63.29;101595.47;684069;28;114963;-64
2022/08/25 01:23:48;;;;;;;926.38;864.55;;;;;;;23.91;63.03;101597.13;686581;28;46345;-63
2022/08/25 01:24:19;;;;;;;921.40;859.58;;;;;;;23.89;63.02;101598.47;684668;28;90309;-63
2022/08/25 01:24:45;;;;;;;921.83;860.17;;;;;;;23.91;63.43;101593.53;683293;28;138382;-64
2022/08/25 01:25:26;;;;;;;913.63;852.30;;;;;;;23.91;63.26;101594.34;682369;28;161800;-63
2022/08/25 01:25:52;;;;;;;910.50;849.25;;;;;;;23.92;62.95;101597.97;682549;28;158856;-64
2022/08/25 01:26:19;;;;;;;916.13;854.60;;;;;;;23.91;62.74;101599.03;683321;28;134984;-64
2022/08/25 01:26:40;;;;;;;922.92;861.22;;;;;;;23.90;62.84;101595.47;683049;28;136402;-64
2022/08/25 01:27:01;;;;;;;911.78;850.20;;;;;;;23.89;63.24;101598.47;682661;28;42927;-64
2022/08/25 01:27:31;;;;;;;921.47;859.60;;;;;;;23.88;63.18;101594.00;681181;28;115078;-63
2022/08/25 01:27:52;;;;;;;931.25;869.25;;;;;;;23.87;63.32;101600.59;680623;28;137735;-63
2022/08/25 01:28:13;;;;;;;910.25;848.85;;;;;;;23.87;63.13;101603.38;684579;28;22420;-64
2022/08/25 01:28:35;;;;;;;917.50;855.90;;;;;;;23.84;62.87;101588.16;683774;28;44382;-64
2022/08/25 01:29:39;;;;;;;925.92;864.13;;;;;;;23.83;63.47;101603.00;680501;28;138388;-63
2022/08/25 01:30:03;;;;;;;922.10;860.22;;;;;;;23.82;63.64;101597.72;683833;28;44519;-64
2022/08/25 01:30:24;;;;;;;924.90;862.90;;;;;;;23.82;63.13;101598.53;681380;28;91611;-64
2022/08/25 01:30:46;;;;;;;932.10;870.03;;;;;;;23.85;63.53;101598.09;683591;28;46328;-63
2022/08/25 01:31:07;;;;;;;925.03;863.17;;;;;;;23.85;63.63;101600.84;684368;28;22408;-64
2022/08/25 01:31:30;;;;;;;918.75;857.00;;;;;;;23.85;62.77;101594.50;684356;28;22395;-64
2022/08/25 01:31:56;;;;;;;919.78;858.08;;;;;;;23.84;63.17;101595.56;681994;28;67476;-64
2022/08/25 01:32:17;;;;;;;923.92;862.03;;;;;;;23.84;62.99;101601.09;682979;28;136421;-64
2022/08/25 01:32:38;;;;;;;923.53;861.58;;;;;;;23.85;63.35;101597.25;686964;28;22202;-63
2022/08/25 01:33:03;;;;;;;931.55;869.33;;;;;;;23.85;62.98;101591.75;686965;28;22245;-64
2022/08/25 01:33:25;;;;;;;919.22;857.35;;;;;;;23.85;63.49;101594.50;683001;28;138058;-62
2022/08/25 01:33:46;;;;;;;916.40;854.63;;;;;;;23.84;63.06;101593.69;686967;28;22422;-63
2022/08/25 01:34:11;;;;;;;915.33;853.65;;;;;;;23.83;63.17;101588.38;686160;28;45210;-62
2022/08/25 01:34:35;;;;;;;915.38;853.70;;;;;;;23.83;63.61;101591.97;684647;28;92262;-63
2022/08/25 01:34:56;;;;;;;917.90;856.20;;;;;;;23.84;63.44;101601.09;684019;28;113581;-63
2022/08/25 01:35:18;;;;;;;926.72;864.63;;;;;;;23.83;63.12;101596.66;687176;28;22407;-63
2022/08/25 01:35:39;;;;;;;926.88;864.75;;;;;;;23.81;63.42;101594.13;687303;28;22233;-64
2022/08/25 01:36:02;;;;;;;918.05;856.35;;;;;;;23.82;63.22;101593.03;686409;28;44367;-64
2022/08/25 01:36:29;;;;;;;916.40;854.80;;;;;;;23.81;63.06;101596.03;683028;28;136411;-64
2022/08/25 01:36:54;;;;;;;925.03;863.03;;;;;;;23.79;63.21;101596.28;681804;28;136402;-64
2022/08/25 01:37:17;;;;;;;926.63;864.30;;;;;;;23.75;63.33;101593.19;686238;28;46314;-63
2022/08/25 01:37:40;;;;;;;922.53;860.67;;;;;;;23.74;63.50;101594.25;684858;28;92280;-64
2022/08/25 01:38:03;;;;;;;934.20;871.88;;;;;;;23.73;63.47;101597.25;686457;28;44574;-64
2022/08/25 01:38:25;;;;;;;915.15;853.42;;;;;;;23.72;63.43;101601.13;684841;28;92291;-64
2022/08/25 01:38:46;;;;;;;893.83;832.83;;;;;;;23.70;63.49;101595.03;687248;28;23514;-63
2022/08/25 01:39:09;;;;;;;925.88;863.78;;;;;;;23.70;63.77;101595.03;686095;28;46538;-64
2022/08/25 01:39:32;;;;;;;923.88;861.88;;;;;;;23.68;64.03;101589.75;686500;28;44431;-63
2022/08/25 01:39:53;;;;;;;911.05;849.50;;;;;;;23.68;63.88;101597.16;685584;28;67343;-64
2022/08/25 01:40:15;;;;;;;925.45;863.42;;;;;;;23.68;63.78;101592.50;686468;28;46403;-63
2022/08/25 01:40:39;;;;;;;929.83;867.72;;;;;;;23.68;63.84;101595.25;687152;28;22397;-63
2022/08/25 01:41:00;;;;;;;924.05;862.05;;;;;;;23.69;63.65;101596.91;684733;28;90725;-63
2022/08/25 01:41:26;;;;;;;911.30;849.70;;;;;;;23.67;63.84;101592.75;686999;28;22395;-63
2022/08/25 01:42:03;;;;;;;921.88;860.08;;;;;;;23.69;63.74;101596.09;682471;28;138157;-64
2022/08/25 01:42:37;;;;;;;926.55;864.55;;;;;;;23.64;63.67;101596.81;683176;28;137732;-63
2022/08/25 01:43:06;;;;;;;923.22;861.33;;;;;;;23.63;63.88;101595.13;680638;28;138361;-63